createdAt,value
2018-02-08T00:00:22.670Z,22.15
2018-02-08T00:01:22.688Z,22.07
2018-02-08T00:03:16.455Z,22.14
2018-02-08T00:04:16.455Z,22.07
2018-02-08T00:06:09.375Z,22.15
2018-02-08T00:07:09.373Z,22.08
2018-02-08T00:09:02.291Z,22.18
2018-02-08T00:10:02.290Z,22.15
2018-02-08T00:12:07.964Z,22.10
2018-02-08T00:13:07.998Z,22.16
2018-02-08T00:15:01.337Z,22.21
2018-02-08T00:16:01.108Z,22.14
2018-02-08T00:17:54.873Z,22.19
2018-02-08T00:18:54.872Z,22.23
2018-02-08T00:20:47.790Z,22.15
2018-02-08T00:21:47.789Z,22.07
2018-02-08T00:23:40.706Z,22.14
2018-02-08T00:24:40.705Z,22.10
2018-02-08T00:26:46.734Z,22.12
2018-02-08T00:27:46.378Z,22.15
2018-02-08T00:29:39.299Z,22.12
2018-02-08T00:30:39.294Z,22.12
2018-02-08T00:32:44.967Z,22.15
2018-02-08T00:33:44.967Z,22.18
2018-02-08T00:35:38.732Z,22.19
2018-02-08T00:36:38.731Z,22.06
2018-02-08T00:38:31.652Z,22.14
2018-02-08T00:39:31.671Z,22.08
2018-02-08T00:41:24.565Z,22.10
2018-02-08T00:42:24.564Z,22.14
2018-02-08T00:44:17.508Z,22.14
2018-02-08T00:45:17.508Z,22.06
2018-02-08T00:47:23.155Z,22.14
2018-02-08T00:48:23.153Z,22.12
2018-02-08T00:50:16.072Z,22.10
2018-02-08T00:51:16.070Z,22.18
2018-02-08T00:53:21.749Z,22.10
2018-02-08T00:54:21.747Z,22.10
2018-02-08T00:56:14.665Z,22.14
2018-02-08T00:57:14.665Z,22.14
2018-02-08T00:59:08.659Z,22.16
2018-02-08T01:00:08.658Z,22.06
2018-02-08T01:02:14.318Z,22.14
2018-02-08T01:03:14.329Z,22.18
2018-02-08T01:05:07.248Z,22.16
2018-02-08T01:06:07.246Z,22.22
2018-02-08T01:08:01.015Z,22.08
2018-02-08T01:09:01.011Z,22.15
2018-02-08T01:10:53.930Z,22.12
2018-02-08T01:11:53.928Z,22.04
2018-02-08T01:13:46.845Z,22.08
2018-02-08T01:14:46.849Z,22.19
2018-02-08T01:16:39.765Z,22.12
2018-02-08T01:17:39.799Z,22.19
2018-02-08T01:19:33.546Z,22.10
2018-02-08T01:20:33.529Z,22.04
2018-02-08T01:22:39.200Z,22.08
2018-02-08T01:23:39.198Z,22.06
2018-02-08T01:25:32.116Z,22.03
2018-02-08T01:26:32.115Z,22.08
2018-02-08T01:28:26.729Z,22.10
2018-02-08T01:29:26.728Z,22.12
2018-02-08T01:31:32.401Z,22.06
2018-02-08T01:32:32.400Z,22.15
2018-02-08T01:34:25.403Z,22.12
2018-02-08T01:35:25.317Z,22.07
2018-02-08T01:37:31.217Z,22.06
2018-02-08T01:38:30.989Z,22.06
2018-02-08T01:40:23.909Z,22.12
2018-02-08T01:41:23.907Z,22.10
2018-02-08T01:43:17.674Z,22.06
2018-02-08T01:44:17.672Z,22.12
2018-02-08T01:46:10.589Z,22.16
2018-02-08T01:47:10.588Z,22.06
2018-02-08T01:49:03.506Z,22.14
2018-02-08T01:50:03.505Z,22.10
2018-02-08T01:51:58.121Z,22.08
2018-02-08T01:52:58.118Z,22.06
2018-02-08T01:54:51.122Z,22.14
2018-02-08T01:55:51.046Z,22.08
2018-02-08T01:57:44.831Z,22.19
2018-02-08T01:58:44.810Z,22.06
2018-02-08T02:00:50.837Z,22.04
2018-02-08T02:01:50.481Z,22.12
2018-02-08T02:03:43.634Z,22.03
2018-02-08T02:04:43.418Z,22.03
2018-02-08T02:06:49.318Z,22.06
2018-02-08T02:07:49.070Z,22.04
2018-02-08T02:09:41.990Z,22.10
2018-02-08T02:10:42.023Z,22.08
2018-02-08T02:12:35.738Z,22.08
2018-02-08T02:13:35.758Z,22.12
2018-02-08T02:15:28.679Z,22.15
2018-02-08T02:16:28.677Z,22.16
2018-02-08T02:18:21.595Z,22.15
2018-02-08T02:19:21.594Z,22.16
2018-02-08T02:21:27.267Z,22.19
2018-02-08T02:22:27.266Z,22.16
2018-02-08T02:24:20.184Z,22.18
2018-02-08T02:25:20.186Z,22.10
2018-02-08T02:27:15.027Z,22.12
2018-02-08T02:28:14.797Z,22.16
2018-02-08T02:30:07.715Z,22.06
2018-02-08T02:31:07.750Z,22.08
2018-02-08T02:33:00.609Z,22.06
2018-02-08T02:34:00.630Z,22.07
2018-02-08T02:36:06.304Z,22.14
2018-02-08T02:37:06.302Z,22.14
2018-02-08T02:38:59.225Z,22.16
2018-02-08T02:39:59.223Z,22.14
2018-02-08T02:42:04.891Z,22.06
2018-02-08T02:43:04.893Z,22.03
2018-02-08T02:44:57.810Z,22.12
2018-02-08T02:45:57.811Z,22.08
2018-02-08T02:47:51.575Z,22.07
2018-02-08T02:48:51.575Z,22.07
2018-02-08T02:50:44.514Z,22.12
2018-02-08T02:51:44.492Z,22.08
2018-02-08T02:53:37.410Z,22.06
2018-02-08T02:54:37.411Z,22.00
2018-02-08T02:56:30.571Z,22.08
2018-02-08T02:57:30.326Z,21.91
2018-02-08T02:59:23.242Z,21.99
2018-02-08T03:00:23.241Z,21.94
2018-02-08T03:02:29.277Z,22.01
2018-02-08T03:03:28.913Z,21.94
2018-02-08T03:05:21.831Z,22.06
2018-02-08T03:06:21.830Z,22.01
2018-02-08T03:08:27.732Z,21.99
2018-02-08T03:09:27.502Z,22.03
2018-02-08T03:11:20.438Z,22.01
2018-02-08T03:12:20.418Z,22.04
2018-02-08T03:14:15.012Z,22.01
2018-02-08T03:15:15.032Z,22.04
2018-02-08T03:17:20.705Z,22.10
2018-02-08T03:18:20.717Z,22.04
2018-02-08T03:20:13.623Z,22.12
2018-02-08T03:21:13.621Z,22.06
2018-02-08T03:23:08.237Z,22.06
2018-02-08T03:24:08.235Z,22.12
2018-02-08T03:26:13.909Z,22.10
2018-02-08T03:27:13.909Z,22.16
2018-02-08T03:29:06.834Z,22.14
2018-02-08T03:30:06.827Z,22.14
2018-02-08T03:32:12.832Z,22.10
2018-02-08T03:33:12.497Z,22.18
2018-02-08T03:35:05.416Z,22.10
2018-02-08T03:36:05.415Z,22.14
2018-02-08T03:38:00.030Z,22.12
2018-02-08T03:39:00.028Z,22.08
2018-02-08T03:41:05.680Z,22.12
2018-02-08T03:42:05.700Z,22.14
2018-02-08T03:43:59.469Z,22.10
2018-02-08T03:44:59.469Z,22.15
2018-02-08T03:46:53.213Z,22.16
2018-02-08T03:47:53.232Z,22.12
2018-02-08T03:49:48.097Z,22.16
2018-02-08T03:50:47.845Z,22.10
2018-02-08T03:51:47.874Z,22.18
2018-02-08T03:52:47.901Z,22.14
2018-02-08T03:53:47.930Z,22.08
2018-02-08T03:54:47.956Z,22.18
2018-02-08T03:55:47.984Z,22.16
2018-02-08T03:56:48.012Z,22.18
2018-02-08T03:57:48.059Z,22.16
2018-02-08T03:58:48.073Z,22.08
2018-02-08T03:59:48.094Z,22.12
2018-02-08T04:00:56.080Z,22.07
2018-02-08T04:02:41.041Z,22.07
2018-02-08T04:03:41.041Z,22.06
2018-02-08T04:05:35.655Z,22.12
2018-02-08T04:06:35.654Z,22.14
2018-02-08T04:08:41.568Z,22.15
2018-02-08T04:09:41.326Z,22.14
2018-02-08T04:11:34.245Z,22.18
2018-02-08T04:12:34.246Z,22.18
2018-02-08T04:14:28.907Z,22.16
2018-02-08T04:15:28.859Z,22.16
2018-02-08T04:17:34.510Z,22.18
2018-02-08T04:18:34.530Z,22.19
2018-02-08T04:20:27.449Z,22.14
2018-02-08T04:21:27.448Z,22.08
2018-02-08T04:23:33.362Z,22.15
2018-02-08T04:24:33.120Z,22.18
2018-02-08T04:26:38.794Z,22.19
2018-02-08T04:27:38.793Z,22.15
2018-02-08T04:29:31.710Z,22.15
2018-02-08T04:30:31.710Z,22.10
2018-02-08T04:32:24.695Z,22.07
2018-02-08T04:33:24.626Z,22.15
2018-02-08T04:35:17.545Z,22.18
2018-02-08T04:36:17.544Z,22.10
2018-02-08T04:38:23.198Z,22.18
2018-02-08T04:39:23.256Z,22.12
2018-02-08T04:41:16.139Z,22.19
2018-02-08T04:42:16.136Z,22.18
2018-02-08T04:44:10.750Z,22.15
2018-02-08T04:45:10.749Z,22.18
2018-02-08T04:47:03.668Z,22.16
2018-02-08T04:48:03.666Z,22.14
2018-02-08T04:49:56.561Z,22.14
2018-02-08T04:50:56.583Z,22.14
2018-02-08T04:52:49.957Z,22.18
2018-02-08T04:53:49.727Z,22.07
2018-02-08T04:55:42.645Z,22.08
2018-02-08T04:56:42.644Z,22.10
2018-02-08T04:58:37.488Z,22.03
2018-02-08T04:59:37.489Z,22.07
2018-02-08T05:01:43.139Z,22.01
2018-02-08T05:02:43.158Z,22.00
2018-02-08T05:04:36.164Z,22.08
2018-02-08T05:05:36.082Z,22.08
2018-02-08T05:07:29.853Z,22.03
2018-02-08T05:08:29.845Z,22.08
2018-02-08T05:10:22.768Z,22.14
2018-02-08T05:11:22.770Z,22.08
2018-02-08T05:13:15.686Z,22.19
2018-02-08T05:14:15.685Z,22.10
2018-02-08T05:16:21.367Z,22.08
2018-02-08T05:17:21.357Z,22.14
2018-02-08T05:19:14.276Z,22.10
2018-02-08T05:20:14.287Z,22.16
2018-02-08T05:21:14.302Z,22.12
2018-02-08T05:22:14.329Z,22.06
2018-02-08T05:23:14.356Z,22.07
2018-02-08T05:24:14.385Z,22.10
2018-02-08T05:25:14.415Z,22.12
2018-02-08T05:26:14.440Z,22.08
2018-02-08T05:27:14.469Z,22.08
2018-02-08T05:28:14.496Z,22.15
2018-02-08T05:29:14.523Z,22.10
2018-02-08T05:30:14.551Z,22.14
2018-02-08T05:31:14.607Z,22.12
2018-02-08T05:32:14.605Z,22.15
2018-02-08T05:33:14.668Z,22.08
2018-02-08T05:34:14.662Z,22.16
2018-02-08T05:35:14.690Z,22.16
2018-02-08T05:36:14.717Z,22.18
2018-02-08T05:37:14.744Z,22.18
2018-02-08T05:38:14.771Z,22.21
2018-02-08T05:39:14.800Z,22.21
2018-02-08T05:40:14.846Z,22.28
2018-02-08T05:41:14.855Z,22.23
2018-02-08T05:42:14.883Z,22.22
2018-02-08T05:43:14.910Z,22.23
2018-02-08T05:44:14.938Z,22.31
2018-02-08T05:45:14.966Z,22.33
2018-02-08T05:46:14.996Z,22.34
2018-02-08T05:47:15.022Z,22.43
2018-02-08T05:48:15.050Z,22.37
2018-02-08T05:49:15.077Z,22.38
2018-02-08T05:50:15.103Z,22.44
2018-02-08T05:51:15.132Z,22.41
2018-02-08T05:52:15.159Z,22.43
2018-02-08T05:53:15.187Z,22.46
2018-02-08T05:54:15.213Z,22.49
2018-02-08T05:55:15.243Z,22.62
2018-02-08T05:56:15.272Z,22.59
2018-02-08T05:57:15.298Z,22.59
2018-02-08T05:58:15.361Z,22.61
2018-02-08T05:59:15.353Z,22.65
2018-02-08T06:00:15.390Z,22.68
2018-02-08T06:01:15.409Z,22.70
2018-02-08T06:02:15.436Z,22.74
2018-02-08T06:03:15.463Z,22.76
2018-02-08T06:04:15.492Z,22.76
2018-02-08T06:05:15.523Z,22.88
2018-02-08T06:06:15.547Z,22.84
2018-02-08T06:07:15.575Z,22.86
2018-02-08T06:08:15.621Z,22.76
2018-02-08T06:09:15.631Z,22.83
2018-02-08T06:10:15.662Z,22.74
2018-02-08T06:11:15.687Z,22.70
2018-02-08T06:12:15.714Z,22.81
2018-02-08T06:13:15.744Z,22.77
2018-02-08T06:14:15.771Z,22.74
2018-02-08T06:15:15.805Z,22.71
2018-02-08T06:16:15.828Z,22.65
2018-02-08T06:17:15.854Z,22.71
2018-02-08T06:18:15.882Z,22.67
2018-02-08T06:19:15.910Z,22.67
2018-02-08T06:20:15.937Z,22.63
2018-02-08T06:21:15.985Z,22.67
2018-02-08T06:22:15.993Z,22.63
2018-02-08T06:23:16.023Z,22.55
2018-02-08T06:24:16.086Z,22.62
2018-02-08T06:25:16.077Z,22.65
2018-02-08T06:26:16.107Z,22.71
2018-02-08T06:27:16.133Z,22.63
2018-02-08T06:28:16.162Z,22.63
2018-02-08T06:29:16.188Z,22.61
2018-02-08T06:30:16.215Z,22.63
2018-02-08T06:31:16.244Z,22.61
2018-02-08T06:32:16.272Z,22.58
2018-02-08T06:33:16.300Z,22.62
2018-02-08T06:34:16.327Z,22.63
2018-02-08T06:35:16.356Z,22.62
2018-02-08T06:36:16.397Z,22.62
2018-02-08T06:37:16.411Z,22.62
2018-02-08T06:38:16.438Z,22.58
2018-02-08T06:39:16.467Z,22.67
2018-02-08T06:40:16.495Z,22.62
2018-02-08T06:41:16.523Z,22.65
2018-02-08T06:42:16.555Z,22.58
2018-02-08T06:43:16.578Z,22.65
2018-02-08T06:44:16.606Z,22.61
2018-02-08T06:45:16.637Z,22.62
2018-02-08T06:46:16.661Z,22.62
2018-02-08T06:47:16.690Z,22.74
2018-02-08T06:48:16.719Z,22.62
2018-02-08T06:49:16.748Z,22.62
2018-02-08T06:50:16.773Z,22.78
2018-02-08T06:51:17.366Z,22.76
2018-02-08T06:52:16.830Z,22.73
2018-02-08T06:53:16.858Z,22.73
2018-02-08T06:54:16.930Z,22.86
2018-02-08T06:55:16.912Z,22.84
2018-02-08T06:56:16.940Z,22.84
2018-02-08T06:57:16.970Z,22.80
2018-02-08T06:58:16.996Z,22.91
2018-02-08T06:59:17.026Z,22.92
2018-02-08T07:00:17.052Z,22.88
2018-02-08T07:01:17.080Z,22.93
2018-02-08T07:02:17.108Z,22.91
2018-02-08T07:03:17.142Z,22.91
2018-02-08T07:04:17.164Z,22.92
2018-02-08T07:05:17.194Z,22.89
2018-02-08T07:06:17.234Z,22.92
2018-02-08T07:07:17.248Z,22.96
2018-02-08T07:08:17.276Z,22.92
2018-02-08T07:09:17.304Z,22.91
2018-02-08T07:10:17.330Z,22.86
2018-02-08T07:11:17.360Z,22.88
2018-02-08T07:12:17.388Z,22.88
2018-02-08T07:13:17.415Z,22.84
2018-02-08T07:14:17.446Z,22.89
2018-02-08T07:15:17.471Z,22.83
2018-02-08T07:16:17.499Z,22.81
2018-02-08T07:17:17.528Z,22.89
2018-02-08T07:18:17.558Z,22.78
2018-02-08T07:19:17.583Z,22.73
2018-02-08T07:20:17.611Z,22.78
2018-02-08T07:21:17.639Z,22.76
2018-02-08T07:22:17.666Z,22.71
2018-02-08T07:23:17.693Z,22.71
2018-02-08T07:24:17.723Z,22.65
2018-02-08T07:25:17.762Z,22.65
2018-02-08T07:26:17.777Z,22.65
2018-02-08T07:27:17.806Z,22.63
2018-02-08T07:28:17.840Z,22.61
2018-02-08T07:29:17.865Z,22.61
2018-02-08T07:30:17.890Z,22.62
2018-02-08T07:31:17.965Z,22.58
2018-02-08T07:32:17.946Z,22.59
2018-02-08T07:33:18.000Z,22.67
2018-02-08T07:34:18.002Z,22.56
2018-02-08T07:35:18.049Z,22.53
2018-02-08T07:36:18.059Z,22.63
2018-02-08T07:37:18.086Z,22.61
2018-02-08T07:38:18.113Z,22.61
2018-02-08T07:39:18.159Z,22.53
2018-02-08T07:40:18.197Z,22.65
2018-02-08T07:41:18.197Z,22.53
2018-02-08T07:42:18.224Z,22.65
2018-02-08T07:43:18.252Z,22.67
2018-02-08T07:44:18.289Z,22.67
2018-02-08T07:45:18.308Z,22.56
2018-02-08T07:46:18.340Z,22.56
2018-02-08T07:47:18.364Z,22.63
2018-02-08T07:48:18.392Z,22.61
2018-02-08T07:49:18.437Z,22.62
2018-02-08T07:50:18.454Z,22.63
2018-02-08T07:51:18.476Z,22.63
2018-02-08T07:52:18.503Z,22.73
2018-02-08T07:53:18.532Z,22.74
2018-02-08T07:54:18.559Z,22.77
2018-02-08T07:55:18.588Z,22.83
2018-02-08T07:56:18.616Z,22.83
2018-02-08T07:57:18.643Z,22.83
2018-02-08T07:58:18.673Z,22.92
2018-02-08T07:59:18.699Z,22.86
2018-02-08T08:00:18.727Z,22.88
2018-02-08T08:01:18.756Z,22.84
2018-02-08T08:02:18.786Z,22.89
2018-02-08T08:03:18.814Z,22.96
2018-02-08T08:04:18.839Z,22.88
2018-02-08T08:05:18.912Z,22.89
2018-02-08T08:06:18.904Z,22.88
2018-02-08T08:07:18.923Z,22.86
2018-02-08T08:08:18.951Z,22.84
2018-02-08T08:09:18.982Z,22.88
2018-02-08T08:10:19.007Z,22.84
2018-02-08T08:11:19.035Z,22.86
2018-02-08T08:12:19.065Z,22.78
2018-02-08T08:13:19.091Z,22.83
2018-02-08T08:14:19.118Z,22.76
2018-02-08T08:15:19.161Z,22.70
2018-02-08T08:16:19.203Z,22.78
2018-02-08T08:17:19.204Z,22.86
2018-02-08T08:18:19.244Z,22.76
2018-02-08T08:19:19.258Z,22.74
2018-02-08T08:20:19.293Z,22.81
2018-02-08T08:21:19.315Z,22.77
2018-02-08T08:22:19.342Z,22.77
2018-02-08T08:23:19.370Z,22.71
2018-02-08T08:24:19.399Z,22.73
2018-02-08T08:25:19.427Z,22.81
2018-02-08T08:26:19.461Z,22.76
2018-02-08T08:27:19.484Z,22.76
2018-02-08T08:28:19.518Z,22.74
2018-02-08T08:29:19.544Z,22.76
2018-02-08T08:30:19.566Z,22.81
2018-02-08T08:31:19.594Z,22.77
2018-02-08T08:32:19.623Z,22.78
2018-02-08T08:33:19.650Z,22.77
2018-02-08T08:34:19.697Z,22.71
2018-02-08T08:35:19.707Z,22.73
2018-02-08T08:36:19.741Z,22.77
2018-02-08T08:37:19.781Z,22.77
2018-02-08T08:38:19.822Z,22.70
2018-02-08T08:39:19.817Z,22.81
2018-02-08T08:40:19.848Z,22.74
2018-02-08T08:41:19.875Z,22.81
2018-02-08T08:42:19.903Z,22.76
2018-02-08T08:43:19.964Z,22.74
2018-02-08T08:44:19.958Z,22.78
2018-02-08T08:45:19.988Z,22.80
2018-02-08T08:46:20.019Z,22.81
2018-02-08T08:47:20.042Z,22.83
2018-02-08T08:48:20.071Z,22.80
2018-02-08T08:49:20.101Z,22.91
2018-02-08T08:50:20.125Z,22.91
2018-02-08T08:51:20.155Z,22.93
2018-02-08T08:52:20.186Z,22.88
2018-02-08T08:53:20.215Z,22.88
2018-02-08T08:54:20.238Z,22.92
2018-02-08T08:55:20.267Z,22.91
2018-02-08T08:56:20.294Z,22.99
2018-02-08T08:57:20.323Z,22.92
2018-02-08T08:58:20.350Z,22.95
2018-02-08T08:59:20.378Z,22.98
2018-02-08T09:00:20.406Z,23.02
2018-02-08T09:01:20.435Z,22.99
2018-02-08T09:02:20.462Z,23.10
2018-02-08T09:03:20.490Z,23.01
2018-02-08T09:04:20.547Z,23.06
2018-02-08T09:05:20.546Z,23.02
2018-02-08T09:06:20.579Z,23.08
2018-02-08T09:07:20.640Z,23.08
2018-02-08T09:08:20.641Z,23.07
2018-02-08T09:09:20.658Z,23.10
2018-02-08T09:10:20.686Z,23.07
2018-02-08T09:11:20.714Z,23.06
2018-02-08T09:12:20.743Z,23.04
2018-02-08T09:13:20.771Z,22.98
2018-02-08T09:14:20.827Z,22.93
2018-02-08T09:15:20.847Z,22.98
2018-02-08T09:16:20.858Z,22.99
2018-02-08T09:17:20.886Z,23.06
2018-02-08T09:18:20.910Z,23.04
2018-02-08T09:19:20.938Z,23.02
2018-02-08T09:20:20.967Z,23.07
2018-02-08T09:21:20.996Z,23.02
2018-02-08T09:22:21.062Z,22.99
2018-02-08T09:23:21.051Z,23.07
2018-02-08T09:24:21.079Z,23.07
2018-02-08T09:25:21.107Z,23.06
2018-02-08T09:26:21.134Z,23.06
2018-02-08T09:27:21.163Z,23.14
2018-02-08T09:28:21.194Z,23.08
2018-02-08T09:29:21.219Z,23.11
2018-02-08T09:30:21.251Z,23.01
2018-02-08T09:31:21.277Z,22.99
2018-02-08T09:32:21.329Z,22.91
2018-02-08T09:33:21.333Z,22.92
2018-02-08T09:34:21.359Z,22.95
2018-02-08T09:35:21.388Z,23.02
2018-02-08T09:36:21.416Z,22.95
2018-02-08T09:37:21.444Z,22.96
2018-02-08T09:38:21.471Z,22.89
2018-02-08T09:39:21.500Z,22.92
2018-02-08T09:40:21.560Z,22.92
2018-02-08T09:41:21.558Z,22.98
2018-02-08T09:42:21.586Z,22.99
2018-02-08T09:43:21.612Z,22.91
2018-02-08T09:44:21.640Z,22.95
2018-02-08T09:45:21.669Z,22.98
2018-02-08T09:46:21.696Z,22.99
2018-02-08T09:47:21.726Z,23.06
2018-02-08T09:48:21.762Z,23.02
2018-02-08T09:49:21.809Z,23.04
2018-02-08T09:50:21.808Z,23.06
2018-02-08T09:51:21.836Z,23.13
2018-02-08T09:52:21.866Z,23.11
2018-02-08T09:53:21.893Z,23.10
2018-02-08T09:54:21.921Z,23.14
2018-02-08T09:55:21.949Z,23.07
2018-02-08T09:56:21.977Z,23.11
2018-02-08T09:57:22.005Z,23.07
2018-02-08T09:58:22.033Z,23.11
2018-02-08T09:59:22.064Z,23.14
2018-02-08T10:00:22.089Z,23.16
2018-02-08T10:01:22.120Z,23.16
2018-02-08T10:02:22.146Z,23.06
2018-02-08T10:03:22.175Z,23.10
2018-02-08T10:04:22.224Z,23.06
2018-02-08T10:05:22.230Z,23.16
2018-02-08T10:06:22.261Z,23.06
2018-02-08T10:07:22.294Z,23.17
2018-02-08T10:08:22.316Z,23.10
2018-02-08T10:09:22.348Z,23.11
2018-02-08T10:10:22.369Z,23.10
2018-02-08T10:11:22.398Z,23.10
2018-02-08T10:12:22.428Z,23.08
2018-02-08T10:13:22.456Z,23.28
2018-02-08T10:14:22.482Z,23.17
2018-02-08T10:15:22.511Z,23.16
2018-02-08T10:16:22.539Z,23.16
2018-02-08T10:17:22.570Z,23.26
2018-02-08T10:18:22.594Z,23.28
2018-02-08T10:19:22.655Z,23.21
2018-02-08T10:20:22.654Z,23.34
2018-02-08T10:21:22.680Z,23.40
2018-02-08T10:22:22.708Z,23.40
2018-02-08T10:23:22.746Z,23.40
2018-02-08T10:24:22.765Z,23.45
2018-02-08T10:25:22.792Z,23.47
2018-02-08T10:26:22.821Z,23.48
2018-02-08T10:27:22.856Z,23.51
2018-02-08T10:28:22.877Z,23.48
2018-02-08T10:29:22.907Z,23.52
2018-02-08T10:30:22.965Z,23.49
2018-02-08T10:31:22.960Z,23.52
2018-02-08T10:32:22.989Z,23.48
2018-02-08T10:33:23.018Z,23.54
2018-02-08T10:34:23.085Z,23.49
2018-02-08T10:35:23.073Z,23.48
2018-02-08T10:36:23.101Z,23.48
2018-02-08T10:37:23.131Z,23.48
2018-02-08T10:38:23.158Z,23.44
2018-02-08T10:39:23.187Z,23.54
2018-02-08T10:40:23.214Z,23.52
2018-02-08T10:41:23.268Z,23.51
2018-02-08T10:42:23.271Z,23.51
2018-02-08T10:43:23.299Z,23.54
2018-02-08T10:44:23.327Z,23.48
2018-02-08T10:45:23.361Z,23.45
2018-02-08T10:46:23.383Z,23.45
2018-02-08T10:47:23.412Z,23.45
2018-02-08T10:48:23.443Z,23.52
2018-02-08T10:49:23.489Z,23.51
2018-02-08T10:50:23.496Z,23.52
2018-02-08T10:51:23.524Z,23.49
2018-02-08T10:52:23.557Z,23.48
2018-02-08T10:53:23.582Z,23.49
2018-02-08T10:54:23.610Z,23.48
2018-02-08T10:55:23.638Z,23.48
2018-02-08T10:56:23.667Z,23.45
2018-02-08T10:57:23.696Z,23.47
2018-02-08T10:58:23.722Z,23.44
2018-02-08T10:59:23.751Z,23.48
2018-02-08T11:00:23.780Z,23.42
2018-02-08T11:01:23.808Z,23.40
2018-02-08T11:02:23.835Z,23.39
2018-02-08T11:03:23.864Z,23.42
2018-02-08T11:04:23.894Z,23.45
2018-02-08T11:05:23.922Z,23.42
2018-02-08T11:06:23.948Z,23.42
2018-02-08T11:07:23.977Z,23.49
2018-02-08T11:08:24.006Z,23.42
2018-02-08T11:09:24.033Z,23.52
2018-02-08T11:10:24.061Z,23.51
2018-02-08T11:11:24.089Z,23.54
2018-02-08T11:12:24.118Z,23.54
2018-02-08T11:13:24.188Z,23.62
2018-02-08T11:14:24.174Z,23.59
2018-02-08T11:15:24.204Z,23.67
2018-02-08T11:16:24.233Z,23.69
2018-02-08T11:17:24.260Z,23.73
2018-02-08T11:18:24.288Z,23.74
2018-02-08T11:19:24.316Z,23.71
2018-02-08T11:20:24.348Z,23.70
2018-02-08T11:21:24.376Z,23.73
2018-02-08T11:22:24.401Z,23.73
2018-02-08T11:23:24.428Z,23.71
2018-02-08T11:24:24.458Z,23.66
2018-02-08T11:25:24.487Z,23.69
2018-02-08T11:26:24.531Z,23.67
2018-02-08T11:27:24.545Z,23.74
2018-02-08T11:28:24.570Z,23.76
2018-02-08T11:29:24.601Z,23.76
2018-02-08T11:30:24.627Z,23.67
2018-02-08T11:31:24.656Z,23.67
2018-02-08T11:32:24.686Z,23.66
2018-02-08T11:33:24.712Z,23.63
2018-02-08T11:34:24.741Z,23.69
2018-02-08T11:35:24.770Z,23.67
2018-02-08T11:36:24.798Z,23.69
2018-02-08T11:37:24.828Z,23.70
2018-02-08T11:38:24.854Z,23.67
2018-02-08T11:39:24.883Z,23.59
2018-02-08T11:40:24.913Z,23.62
2018-02-08T11:41:24.940Z,23.58
2018-02-08T11:42:24.987Z,23.62
2018-02-08T11:43:24.997Z,23.55
2018-02-08T11:44:25.025Z,23.52
2018-02-08T11:45:25.054Z,23.54
2018-02-08T11:46:25.080Z,23.59
2018-02-08T11:47:25.109Z,23.63
2018-02-08T11:48:25.138Z,23.63
2018-02-08T11:49:25.166Z,23.59
2018-02-08T11:50:25.195Z,23.49
2018-02-08T11:51:25.224Z,23.51
2018-02-08T11:52:25.251Z,23.52
2018-02-08T11:53:25.279Z,23.44
2018-02-08T11:54:25.306Z,23.62
2018-02-08T11:55:25.336Z,23.47
2018-02-08T11:56:25.368Z,23.52
2018-02-08T11:57:25.393Z,23.49
2018-02-08T11:58:25.468Z,23.49
2018-02-08T11:59:25.449Z,23.54
2018-02-08T12:00:25.477Z,23.45
2018-02-08T12:01:25.506Z,23.55
2018-02-08T12:02:25.534Z,23.63
2018-02-08T12:03:25.566Z,23.64
2018-02-08T12:04:25.595Z,23.56
2018-02-08T12:05:25.621Z,23.56
2018-02-08T12:06:25.647Z,23.55
2018-02-08T12:07:25.675Z,23.63
2018-02-08T12:08:25.704Z,23.55
2018-02-08T12:09:25.737Z,23.58
2018-02-08T12:10:25.760Z,23.59
2018-02-08T12:11:25.792Z,23.59
2018-02-08T12:12:25.818Z,23.58
2018-02-08T12:13:25.852Z,23.56
2018-02-08T12:14:25.873Z,23.49
2018-02-08T12:15:25.902Z,23.54
2018-02-08T12:16:25.932Z,23.58
2018-02-08T12:17:25.960Z,23.55
2018-02-08T12:18:25.987Z,23.66
2018-02-08T12:19:26.016Z,23.56
2018-02-08T12:20:26.044Z,23.56
2018-02-08T12:21:26.073Z,23.56
2018-02-08T12:22:26.102Z,23.63
2018-02-08T12:23:26.130Z,23.56
2018-02-08T12:24:26.158Z,23.55
2018-02-08T12:25:26.188Z,23.44
2018-02-08T12:26:26.214Z,23.51
2018-02-08T12:27:26.251Z,23.55
2018-02-08T12:28:26.282Z,23.58
2018-02-08T12:29:26.301Z,23.52
2018-02-08T12:30:26.328Z,23.44
2018-02-08T12:31:26.357Z,23.51
2018-02-08T12:32:26.387Z,23.47
2018-02-08T12:33:26.413Z,23.47
2018-02-08T12:34:26.440Z,23.54
2018-02-08T12:35:26.473Z,23.51
2018-02-08T12:36:26.499Z,23.47
2018-02-08T12:37:26.527Z,23.54
2018-02-08T12:38:26.554Z,23.39
2018-02-08T12:39:26.584Z,23.42
2018-02-08T12:40:26.651Z,23.44
2018-02-08T12:41:26.640Z,23.45
2018-02-08T12:42:26.695Z,23.45
2018-02-08T12:43:26.695Z,23.47
2018-02-08T12:44:26.723Z,23.40
2018-02-08T12:45:26.754Z,23.42
2018-02-08T12:46:26.780Z,23.45
2018-02-08T12:47:26.822Z,23.40
2018-02-08T12:48:26.839Z,23.47
2018-02-08T12:49:26.866Z,23.47
2018-02-08T12:50:26.894Z,23.44
2018-02-08T12:51:26.926Z,23.42
2018-02-08T12:52:26.951Z,23.39
2018-02-08T12:53:26.978Z,23.40
2018-02-08T12:54:27.008Z,23.47
2018-02-08T12:55:27.036Z,23.42
2018-02-08T12:56:27.064Z,23.45
2018-02-08T12:57:27.092Z,23.29
2018-02-08T12:58:27.118Z,23.33
2018-02-08T12:59:27.150Z,23.40
2018-02-08T13:00:27.182Z,23.34
2018-02-08T13:01:27.205Z,23.36
2018-02-08T13:02:27.232Z,23.32
2018-02-08T13:03:27.300Z,23.32
2018-02-08T13:04:27.289Z,23.32
2018-02-08T13:05:27.318Z,23.36
2018-02-08T13:06:27.345Z,23.37
2018-02-08T13:07:27.374Z,23.37
2018-02-08T13:08:27.402Z,23.39
2018-02-08T13:09:27.431Z,23.39
2018-02-08T13:10:27.481Z,23.42
2018-02-08T13:11:27.488Z,23.32
2018-02-08T13:12:27.517Z,23.34
2018-02-08T13:13:27.546Z,23.34
2018-02-08T13:14:27.572Z,23.39
2018-02-08T13:15:27.632Z,23.33
2018-02-08T13:16:27.629Z,23.32
2018-02-08T13:17:27.657Z,23.32
2018-02-08T13:18:27.686Z,23.40
2018-02-08T13:19:27.713Z,23.44
2018-02-08T13:20:27.790Z,23.37
2018-02-08T13:21:27.771Z,23.34
2018-02-08T13:22:27.799Z,23.34
2018-02-08T13:23:27.826Z,23.40
2018-02-08T13:24:27.855Z,23.42
2018-02-08T13:25:27.883Z,23.39
2018-02-08T13:26:27.911Z,23.37
2018-02-08T13:27:27.939Z,23.39
2018-02-08T13:28:27.968Z,23.37
2018-02-08T13:29:27.996Z,23.33
2018-02-08T13:30:28.049Z,23.33
2018-02-08T13:31:28.053Z,23.36
2018-02-08T13:32:28.081Z,23.39
2018-02-08T13:33:28.109Z,23.39
2018-02-08T13:34:28.139Z,23.33
2018-02-08T13:35:28.192Z,23.39
2018-02-08T13:36:28.195Z,23.36
2018-02-08T13:37:28.223Z,23.39
2018-02-08T13:38:28.251Z,23.34
2018-02-08T13:39:28.279Z,23.33
2018-02-08T13:40:28.307Z,23.32
2018-02-08T13:41:28.335Z,23.34
2018-02-08T13:42:28.363Z,23.28
2018-02-08T13:43:28.394Z,23.36
2018-02-08T13:44:28.420Z,23.37
2018-02-08T13:45:28.449Z,23.25
2018-02-08T13:46:28.476Z,23.25
2018-02-08T13:47:28.508Z,23.32
2018-02-08T13:48:28.534Z,23.21
2018-02-08T13:49:28.563Z,23.34
2018-02-08T13:50:28.590Z,23.36
2018-02-08T13:51:28.618Z,23.18
2018-02-08T13:52:28.646Z,23.25
2018-02-08T13:53:28.674Z,23.25
2018-02-08T13:54:28.702Z,23.17
2018-02-08T13:55:28.731Z,23.14
2018-02-08T13:56:28.760Z,23.23
2018-02-08T13:57:28.788Z,23.20
2018-02-08T13:58:28.815Z,23.14
2018-02-08T13:59:28.844Z,23.20
2018-02-08T14:00:28.873Z,23.28
2018-02-08T14:01:28.901Z,23.23
2018-02-08T14:02:28.928Z,23.25
2018-02-08T14:03:28.957Z,23.17
2018-02-08T14:04:29.018Z,23.23
2018-02-08T14:05:29.014Z,23.18
2018-02-08T14:06:29.047Z,23.25
2018-02-08T14:07:29.070Z,23.25
2018-02-08T14:08:29.098Z,23.20
2018-02-08T14:09:29.127Z,23.21
2018-02-08T14:10:29.154Z,23.11
2018-02-08T14:11:29.220Z,23.07
2018-02-08T14:12:29.212Z,23.13
2018-02-08T14:13:29.241Z,23.16
2018-02-08T14:14:29.289Z,23.17
2018-02-08T14:15:29.296Z,23.07
2018-02-08T14:16:29.361Z,23.07
2018-02-08T14:17:29.353Z,23.11
2018-02-08T14:18:29.395Z,23.08
2018-02-08T14:19:29.408Z,23.06
2018-02-08T14:20:29.437Z,23.10
2018-02-08T14:21:29.465Z,23.06
2018-02-08T14:22:29.493Z,23.07
2018-02-08T14:23:29.552Z,23.14
2018-02-08T14:24:29.550Z,22.98
2018-02-08T14:25:29.579Z,23.01
2018-02-08T14:26:29.607Z,23.08
2018-02-08T14:27:29.635Z,23.07
2018-02-08T14:28:29.663Z,23.11
2018-02-08T14:29:29.692Z,23.13
2018-02-08T14:30:29.718Z,23.07
2018-02-08T14:31:29.748Z,23.04